createdAt,value
2019-02-05T00:01:25.330Z,24.60
2019-02-05T00:03:55.046Z,20.30
2019-02-05T00:06:24.853Z,29.63
2019-02-05T00:08:55.163Z,22.23
2019-02-05T00:11:24.731Z,17.60
2019-02-05T00:13:54.310Z,20.97
2019-02-05T00:16:24.043Z,21.00
2019-02-05T00:18:53.626Z,21.83
2019-02-05T00:21:23.259Z,21.53
2019-02-05T00:23:52.965Z,21.87
2019-02-05T00:26:22.530Z,26.17
2019-02-05T00:28:52.267Z,24.73
2019-02-05T00:31:21.800Z,24.73
2019-02-05T00:33:51.571Z,25.70
2019-02-05T00:36:21.074Z,24.93
2019-02-05T00:38:52.798Z,22.00
2019-02-05T00:41:24.038Z,26.07
2019-02-05T00:43:53.683Z,21.33
2019-02-05T00:46:23.366Z,19.67
2019-02-05T00:48:53.109Z,24.03
2019-02-05T00:51:22.762Z,23.50
2019-02-05T00:53:52.442Z,21.23
2019-02-05T00:56:22.010Z,20.40
2019-02-05T00:58:51.579Z,20.03
2019-02-05T01:01:21.115Z,22.07
2019-02-05T01:03:50.607Z,21.07
2019-02-05T01:06:20.242Z,22.73
2019-02-05T01:08:49.923Z,23.70
2019-02-05T01:11:19.559Z,24.97
2019-02-05T01:13:49.130Z,24.87
2019-02-05T01:16:19.080Z,20.10
2019-02-05T01:18:48.582Z,24.27
2019-02-05T01:21:18.352Z,23.77
2019-02-05T01:23:47.968Z,28.23
2019-02-05T01:26:28.713Z,27.47
2019-02-05T01:28:48.815Z,28.27
2019-02-05T01:31:18.615Z,30.10
2019-02-05T01:33:48.223Z,27.70
2019-02-05T01:36:17.826Z,29.50
2019-02-05T01:38:47.495Z,28.63
2019-02-05T01:41:17.058Z,30.57
2019-02-05T01:43:46.775Z,30.27
2019-02-05T01:46:16.383Z,36.10
2019-02-05T01:48:46.541Z,35.53
2019-02-05T01:51:16.175Z,28.53
2019-02-05T01:53:45.794Z,35.03
2019-02-05T01:56:15.426Z,31.83
2019-02-05T01:58:44.998Z,30.07
2019-02-05T02:01:14.705Z,25.57
2019-02-05T02:03:44.867Z,25.77
2019-02-05T02:06:14.512Z,29.83
2019-02-05T02:08:44.113Z,27.60
2019-02-05T02:11:13.759Z,32.57
2019-02-05T02:13:43.903Z,25.83
2019-02-05T02:16:13.562Z,26.17
2019-02-05T02:18:43.086Z,23.37
2019-02-05T02:21:12.723Z,29.30
2019-02-05T02:23:42.399Z,26.50
2019-02-05T02:26:12.085Z,26.13
2019-02-05T02:28:41.952Z,23.90
2019-02-05T02:31:11.618Z,25.90
2019-02-05T02:33:41.359Z,22.80
2019-02-05T02:36:11.079Z,30.57
2019-02-05T02:38:40.714Z,30.57
2019-02-05T02:41:10.695Z,35.47
2019-02-05T02:43:40.368Z,28.73
2019-02-05T02:46:10.203Z,27.30
2019-02-05T02:48:39.876Z,29.07
2019-02-05T02:51:09.548Z,28.47
2019-02-05T02:53:39.186Z,38.17
2019-02-05T02:56:08.804Z,30.23
2019-02-05T02:58:38.376Z,25.73
2019-02-05T03:01:08.142Z,31.63
2019-02-05T03:03:37.707Z,27.20
2019-02-05T03:06:07.344Z,30.27
2019-02-05T03:08:37.918Z,32.63
2019-02-05T03:11:07.703Z,32.90
2019-02-05T03:13:37.571Z,32.27
2019-02-05T03:16:07.665Z,30.97
2019-02-05T03:18:37.428Z,27.40
2019-02-05T03:21:07.136Z,33.47
2019-02-05T03:23:37.413Z,27.17
2019-02-05T03:26:07.056Z,32.47
2019-02-05T03:28:36.629Z,29.37
2019-02-05T03:31:06.416Z,30.90
2019-02-05T03:33:35.977Z,32.80
2019-02-05T03:36:05.814Z,33.47
2019-02-05T03:38:35.557Z,29.17
2019-02-05T03:41:05.370Z,35.20
2019-02-05T03:43:35.470Z,33.83
2019-02-05T03:46:06.320Z,32.73
2019-02-05T03:48:36.674Z,33.30
2019-02-05T03:51:18.362Z,33.50
2019-02-05T03:53:59.750Z,33.57
2019-02-05T03:56:39.100Z,27.23
2019-02-05T03:59:17.656Z,30.10
2019-02-05T04:01:53.023Z,29.50
2019-02-05T04:04:40.571Z,31.50
2019-02-05T04:07:25.553Z,28.07
2019-02-05T04:10:10.083Z,26.13
2019-02-05T04:12:52.183Z,29.30
2019-02-05T04:15:36.862Z,27.20
2019-02-05T04:18:09.576Z,27.77
2019-02-05T04:20:51.601Z,31.03
2019-02-05T04:23:53.099Z,31.33
2019-02-05T04:26:50.142Z,26.60
2019-02-05T04:29:39.579Z,29.77
2019-02-05T04:32:18.643Z,30.47
2019-02-05T04:35:07.792Z,30.80
2019-02-05T04:38:00.230Z,29.40
2019-02-05T04:40:32.886Z,27.27
2019-02-05T04:43:17.312Z,26.17
2019-02-05T04:46:08.527Z,26.40
2019-02-05T04:48:43.549Z,28.50
2019-02-05T04:51:48.370Z,28.67
2019-02-05T04:54:26.983Z,29.90
2019-02-05T04:56:59.680Z,28.63
2019-02-05T04:59:47.312Z,28.73
2019-02-05T05:02:38.109Z,26.13
2019-02-05T05:05:35.551Z,27.03
2019-02-05T05:08:17.189Z,24.13
2019-02-05T05:10:46.762Z,22.77
2019-02-05T05:13:16.622Z,24.80
2019-02-05T05:15:46.306Z,27.53
2019-02-05T05:18:15.883Z,26.33
2019-02-05T05:20:45.894Z,30.27
2019-02-05T05:23:15.563Z,28.93
2019-02-05T05:25:45.134Z,27.17
2019-02-05T05:28:14.943Z,27.57
2019-02-05T05:30:44.683Z,24.97
2019-02-05T05:33:14.827Z,30.43
2019-02-05T05:35:44.697Z,25.83
2019-02-05T05:38:14.358Z,32.57
2019-02-05T05:40:44.013Z,32.83
2019-02-05T05:43:13.592Z,32.77
2019-02-05T05:45:43.650Z,30.20
2019-02-05T05:48:13.782Z,26.80
2019-02-05T05:50:43.411Z,32.07
2019-02-05T05:53:13.399Z,27.70
2019-02-05T05:55:42.981Z,26.33
2019-02-05T05:58:22.290Z,30.60
2019-02-05T06:00:44.929Z,26.17
2019-02-05T06:03:14.807Z,30.67
2019-02-05T06:05:44.447Z,28.60
2019-02-05T06:08:14.119Z,27.73
2019-02-05T06:10:43.756Z,28.37
2019-02-05T06:13:13.399Z,31.80
2019-02-05T06:15:43.319Z,35.63
2019-02-05T06:18:13.295Z,32.00
2019-02-05T06:21:02.252Z,29.40
2019-02-05T06:23:31.962Z,30.03
2019-02-05T06:26:01.675Z,32.57
2019-02-05T06:28:34.805Z,31.10
2019-02-05T06:31:02.682Z,37.80
2019-02-05T06:33:32.327Z,33.43
2019-02-05T06:36:01.935Z,33.93
2019-02-05T06:38:31.587Z,35.70
2019-02-05T06:41:02.949Z,39.47
2019-02-05T06:43:32.590Z,37.47
2019-02-05T06:46:02.225Z,42.30
2019-02-05T06:48:31.787Z,34.57
2019-02-05T06:51:04.254Z,39.20
2019-02-05T06:53:33.895Z,37.40
2019-02-05T06:56:03.609Z,37.80
2019-02-05T06:58:33.290Z,37.23
2019-02-05T07:01:02.861Z,37.77
2019-02-05T07:03:32.565Z,41.07
2019-02-05T07:06:03.110Z,35.97
2019-02-05T07:08:32.754Z,40.07
2019-02-05T07:11:02.557Z,40.33
2019-02-05T07:13:32.417Z,38.57
2019-02-05T07:16:02.455Z,41.03
2019-02-05T07:18:32.023Z,41.93
2019-02-05T07:21:02.552Z,42.17
2019-02-05T07:23:32.132Z,39.27
2019-02-05T07:26:01.698Z,38.53
2019-02-05T07:28:32.199Z,40.87
2019-02-05T07:31:02.337Z,41.07
2019-02-05T07:33:31.970Z,39.93
2019-02-05T07:36:01.738Z,41.07
2019-02-05T07:38:31.382Z,43.00
2019-02-05T07:41:01.051Z,35.87
2019-02-05T07:43:30.654Z,37.70
2019-02-05T07:46:00.317Z,38.27
2019-02-05T07:48:30.650Z,40.57
2019-02-05T07:51:00.292Z,37.87
2019-02-05T07:53:33.058Z,41.63
2019-02-05T07:56:02.947Z,39.90
2019-02-05T07:58:32.587Z,43.13
2019-02-05T08:01:02.367Z,42.93
2019-02-05T08:03:32.336Z,42.73
2019-02-05T08:06:02.587Z,46.23
2019-02-05T08:08:32.155Z,42.53
2019-02-05T08:11:02.267Z,45.23
2019-02-05T08:13:32.311Z,43.63
2019-02-05T08:16:02.034Z,42.20
2019-02-05T08:18:31.599Z,44.80
2019-02-05T08:21:02.834Z,55.57
2019-02-05T08:23:32.555Z,50.57
2019-02-05T08:26:02.149Z,51.57
2019-02-05T08:28:40.585Z,56.17
2019-02-05T08:31:03.186Z,56.50
2019-02-05T08:33:32.759Z,69.77
2019-02-05T08:36:02.523Z,59.73
2019-02-05T08:38:32.101Z,58.27
2019-02-05T08:41:01.677Z,58.97
2019-02-05T08:43:32.247Z,57.47
2019-02-05T08:46:01.953Z,56.67
2019-02-05T08:48:31.541Z,64.57
2019-02-05T08:51:01.270Z,72.03
2019-02-05T08:53:31.247Z,68.13
2019-02-05T08:56:00.892Z,60.70
2019-02-05T08:58:33.411Z,55.90
2019-02-05T09:01:03.224Z,53.07
2019-02-05T09:03:32.867Z,60.43
2019-02-05T09:06:02.582Z,54.20
2019-02-05T09:08:32.607Z,59.37
2019-02-05T09:11:02.301Z,52.47
2019-02-05T09:13:32.462Z,60.75
2019-02-05T09:16:02.107Z,52.55
2019-02-05T09:18:31.680Z,55.27
2019-02-05T09:21:02.936Z,56.48
2019-02-05T09:23:32.506Z,56.08
2019-02-05T09:26:02.151Z,52.43
2019-02-05T09:28:32.294Z,52.33
2019-02-05T09:31:02.015Z,42.20
2019-02-05T09:33:31.727Z,43.30
2019-02-05T09:36:02.977Z,48.52
2019-02-05T09:38:32.689Z,51.53
2019-02-05T09:41:02.679Z,49.35
2019-02-05T09:43:32.363Z,61.02
2019-02-05T09:46:02.071Z,57.08
2019-02-05T09:48:31.649Z,53.75
2019-02-05T09:51:02.947Z,63.60
2019-02-05T09:53:32.610Z,64.20
2019-02-05T09:56:02.472Z,66.07
2019-02-05T09:58:33.136Z,62.35
2019-02-05T10:01:02.839Z,60.95
2019-02-05T10:03:32.485Z,60.33
2019-02-05T10:06:02.167Z,64.95
2019-02-05T10:08:31.915Z,60.10
2019-02-05T10:11:02.126Z,59.77
2019-02-05T10:13:31.838Z,59.15
2019-02-05T10:16:01.415Z,52.33
2019-02-05T10:18:30.988Z,57.38
2019-02-05T10:21:00.936Z,50.30
2019-02-05T10:23:30.763Z,54.55
2019-02-05T10:26:00.399Z,57.75
2019-02-05T10:28:30.154Z,59.58
2019-02-05T10:30:59.727Z,56.68
2019-02-05T10:33:29.392Z,59.63
2019-02-05T10:36:01.250Z,60.45
2019-02-05T10:38:30.480Z,63.50
2019-02-05T10:41:00.122Z,55.75
2019-02-05T10:43:30.027Z,57.98
2019-02-05T10:45:59.667Z,54.25
2019-02-05T10:48:29.315Z,49.80
2019-02-05T10:50:58.995Z,47.40
2019-02-05T10:53:28.646Z,51.00
2019-02-05T10:55:58.234Z,48.13
2019-02-05T10:58:28.224Z,46.25
2019-02-05T11:00:58.112Z,52.53
2019-02-05T11:03:27.755Z,51.95
2019-02-05T11:06:15.798Z,53.52
2019-02-05T11:08:39.958Z,50.98
2019-02-05T11:11:09.529Z,51.70
2019-02-05T11:13:39.283Z,57.27
2019-02-05T11:16:08.950Z,55.12
2019-02-05T11:18:38.569Z,55.75
2019-02-05T11:21:08.771Z,57.35
2019-02-05T11:23:38.408Z,55.17
2019-02-05T11:26:08.164Z,48.68
2019-02-05T11:28:38.118Z,48.78
2019-02-05T11:31:07.829Z,42.90
2019-02-05T11:33:37.542Z,42.95
2019-02-05T11:36:07.444Z,38.48
2019-02-05T11:38:37.260Z,40.70
2019-02-05T11:41:06.832Z,43.98
2019-02-05T11:43:36.630Z,42.58
2019-02-05T11:46:06.275Z,41.80
2019-02-05T11:48:35.994Z,42.67
2019-02-05T11:51:06.245Z,40.43
2019-02-05T11:53:36.152Z,42.58
2019-02-05T11:56:05.890Z,36.28
2019-02-05T11:58:36.135Z,36.58
2019-02-05T12:01:07.429Z,38.55
2019-02-05T12:03:40.302Z,40.23
2019-02-05T12:06:10.055Z,36.15
2019-02-05T12:08:39.729Z,36.03
2019-02-05T12:11:09.266Z,33.78
2019-02-05T12:13:39.066Z,37.67
2019-02-05T12:16:08.770Z,37.93
2019-02-05T12:18:38.519Z,36.75
2019-02-05T12:21:08.131Z,35.80
2019-02-05T12:23:37.870Z,43.38
2019-02-05T12:26:07.555Z,37.20
2019-02-05T12:28:37.619Z,43.10
2019-02-05T12:31:07.465Z,41.95
2019-02-05T12:33:37.035Z,42.30
2019-02-05T12:36:07.671Z,37.83
2019-02-05T12:38:37.244Z,46.08
2019-02-05T12:41:06.955Z,54.18
2019-02-05T12:43:37.461Z,56.77
2019-02-05T12:46:07.540Z,52.62
2019-02-05T12:48:37.183Z,58.55
2019-02-05T12:51:06.999Z,57.15
2019-02-05T12:53:36.571Z,52.13
2019-02-05T12:56:06.470Z,50.30
2019-02-05T12:58:36.191Z,51.10
2019-02-05T13:01:05.899Z,54.25
2019-02-05T13:03:35.618Z,53.35
2019-02-05T13:06:05.777Z,59.15
2019-02-05T13:08:35.405Z,55.63
2019-02-05T13:11:05.420Z,56.33
2019-02-05T13:13:35.157Z,57.38
2019-02-05T13:16:05.171Z,52.35
2019-02-05T13:18:34.734Z,59.45
2019-02-05T13:21:05.126Z,55.15
2019-02-05T13:23:34.935Z,56.13
2019-02-05T13:26:05.471Z,58.00
2019-02-05T13:28:35.226Z,45.50
2019-02-05T13:31:08.055Z,46.53
2019-02-05T13:33:36.567Z,48.98
2019-02-05T13:36:09.782Z,46.60
2019-02-05T13:38:39.367Z,47.67
2019-02-05T13:41:09.067Z,45.35
2019-02-05T13:43:39.044Z,50.50
2019-02-05T13:46:08.826Z,44.77
2019-02-05T13:48:38.398Z,47.03
2019-02-05T13:51:08.150Z,48.75
2019-02-05T13:53:37.725Z,43.98
2019-02-05T13:56:07.937Z,50.78
2019-02-05T13:58:37.540Z,47.03
2019-02-05T14:01:07.183Z,46.23
2019-02-05T14:03:36.824Z,51.92
2019-02-05T14:06:06.600Z,55.30
2019-02-05T14:08:38.149Z,54.73
2019-02-05T14:11:07.707Z,47.15
2019-02-05T14:13:37.310Z,50.63
2019-02-05T14:16:07.155Z,52.83
2019-02-05T14:18:36.793Z,50.58
2019-02-05T14:21:06.393Z,51.37
2019-02-05T14:23:35.957Z,57.33
2019-02-05T14:26:05.672Z,61.15
2019-02-05T14:28:35.447Z,53.48
2019-02-05T14:31:05.147Z,63.05
2019-02-05T14:33:34.642Z,56.60
2019-02-05T14:36:04.436Z,56.88
2019-02-05T14:38:34.115Z,56.05
2019-02-05T14:41:04.158Z,58.30
2019-02-05T14:43:33.767Z,62.15
2019-02-05T14:46:03.414Z,50.52
2019-02-05T14:48:33.126Z,44.27
2019-02-05T14:51:02.730Z,49.03
2019-02-05T14:53:32.230Z,45.10
2019-02-05T14:56:02.167Z,49.33
2019-02-05T14:58:31.842Z,50.85
2019-02-05T15:01:01.383Z,51.30
2019-02-05T15:03:31.049Z,46.92
2019-02-05T15:06:01.339Z,46.60
2019-02-05T15:08:30.913Z,44.30
2019-02-05T15:11:01.916Z,42.67
2019-02-05T15:13:32.222Z,42.93
2019-02-05T15:16:05.336Z,44.48
2019-02-05T15:18:41.206Z,43.75
2019-02-05T15:21:11.913Z,44.48
2019-02-05T15:23:41.491Z,42.88
2019-02-05T15:26:11.186Z,46.15
2019-02-05T15:28:42.901Z,44.98
2019-02-05T15:31:12.474Z,42.85
2019-02-05T15:33:43.755Z,43.40
2019-02-05T15:36:18.362Z,45.35
2019-02-05T15:38:47.995Z,41.80
2019-02-05T15:41:17.610Z,43.45
2019-02-05T15:43:47.413Z,43.78
2019-02-05T15:46:16.970Z,39.27
2019-02-05T15:48:47.122Z,40.10
2019-02-05T15:51:16.691Z,41.37
2019-02-05T15:53:46.325Z,39.23
2019-02-05T15:56:16.030Z,38.88
2019-02-05T15:58:45.673Z,39.10
2019-02-05T16:01:15.234Z,39.18
2019-02-05T16:03:45.454Z,37.33
2019-02-05T16:06:15.083Z,38.58
2019-02-05T16:08:44.752Z,35.20
2019-02-05T16:11:14.368Z,35.85
2019-02-05T16:13:43.995Z,32.98
2019-02-05T16:16:13.707Z,33.75
2019-02-05T16:18:44.074Z,34.25
2019-02-05T16:21:13.655Z,33.55
2019-02-05T16:23:43.287Z,37.70
2019-02-05T16:26:12.916Z,34.92
2019-02-05T16:28:42.618Z,32.33
2019-02-05T16:31:12.197Z,31.40
2019-02-05T16:33:42.381Z,33.38
2019-02-05T16:36:12.375Z,31.68
2019-02-05T16:38:42.020Z,30.05
2019-02-05T16:41:11.801Z,27.20
2019-02-05T16:43:41.376Z,31.40
2019-02-05T16:46:10.956Z,27.25
2019-02-05T16:48:41.010Z,29.70
2019-02-05T16:51:10.661Z,28.98
2019-02-05T16:53:40.235Z,32.00
2019-02-05T16:56:10.009Z,28.90
2019-02-05T16:58:39.725Z,30.12
2019-02-05T17:01:09.295Z,30.25
2019-02-05T17:03:38.992Z,29.75
2019-02-05T17:06:08.641Z,27.27
2019-02-05T17:08:38.309Z,28.10
2019-02-05T17:11:08.031Z,26.27
2019-02-05T17:13:37.671Z,30.32
2019-02-05T17:16:07.247Z,28.90
2019-02-05T17:18:36.862Z,31.20
2019-02-05T17:21:06.618Z,26.97
2019-02-05T17:23:36.110Z,28.73
2019-02-05T17:26:05.720Z,29.80
2019-02-05T17:28:35.302Z,28.75
2019-02-05T17:31:05.080Z,30.12
2019-02-05T17:33:34.765Z,28.83
2019-02-05T17:36:04.703Z,29.27
2019-02-05T17:38:34.269Z,34.20
2019-02-05T17:41:05.837Z,34.18
2019-02-05T17:43:35.418Z,31.75
2019-02-05T17:46:06.015Z,33.30
2019-02-05T17:48:35.818Z,34.73
2019-02-05T17:51:05.487Z,37.30
2019-02-05T17:53:35.131Z,36.33
2019-02-05T17:56:05.598Z,35.80
2019-02-05T17:58:35.162Z,36.60
2019-02-05T18:01:07.118Z,37.23
2019-02-05T18:03:36.912Z,40.98
2019-02-05T18:06:06.577Z,40.48
2019-02-05T18:08:36.287Z,39.83
2019-02-05T18:11:06.736Z,38.45
2019-02-05T18:13:36.578Z,42.03
2019-02-05T18:16:08.398Z,39.65
2019-02-05T18:18:38.023Z,42.98
2019-02-05T18:21:07.695Z,44.23
2019-02-05T18:23:37.549Z,42.75
2019-02-05T18:26:07.271Z,43.65
2019-02-05T18:28:37.325Z,43.40
2019-02-05T18:31:07.038Z,43.80
2019-02-05T18:33:36.737Z,42.65
2019-02-05T18:36:06.460Z,45.78
2019-02-05T18:38:36.108Z,43.17
2019-02-05T18:41:06.308Z,49.58
2019-02-05T18:43:36.223Z,47.70
2019-02-05T18:46:05.929Z,45.08
2019-02-05T18:48:35.542Z,49.45
2019-02-05T18:51:05.248Z,48.92
2019-02-05T18:53:34.841Z,47.33
2019-02-05T18:56:05.199Z,48.30
2019-02-05T18:58:34.741Z,49.23
2019-02-05T19:01:06.249Z,49.55
2019-02-05T19:03:35.991Z,48.30
2019-02-05T19:06:05.643Z,49.40
2019-02-05T19:08:35.278Z,50.63
2019-02-05T19:11:05.002Z,51.40
2019-02-05T19:13:34.512Z,48.08
2019-02-05T19:16:04.219Z,54.48
2019-02-05T19:18:34.814Z,45.05
2019-02-05T19:21:04.522Z,49.98
2019-02-05T19:23:34.214Z,44.70
2019-02-05T19:26:08.919Z,49.85
2019-02-05T19:28:38.674Z,46.53
2019-02-05T19:31:12.614Z,46.05
2019-02-05T19:33:42.159Z,43.28
2019-02-05T19:36:11.707Z,45.95
2019-02-05T19:38:41.209Z,41.90
2019-02-05T19:41:11.024Z,47.03
2019-02-05T19:43:40.975Z,42.15
2019-02-05T19:46:21.463Z,41.80
2019-02-05T19:48:52.986Z,42.80
2019-02-05T19:51:22.762Z,37.25
2019-02-05T19:53:53.916Z,38.95
2019-02-05T19:56:23.600Z,37.23
2019-02-05T19:58:53.253Z,38.70
2019-02-05T20:01:22.899Z,36.68
2019-02-05T20:03:52.570Z,39.78
2019-02-05T20:06:22.220Z,42.45
2019-02-05T20:08:51.859Z,40.83
2019-02-05T20:11:21.647Z,43.40
2019-02-05T20:13:51.295Z,39.45
2019-02-05T20:16:20.908Z,38.53
2019-02-05T20:18:50.496Z,39.50
2019-02-05T20:21:20.003Z,33.35
2019-02-05T20:23:49.730Z,37.78
2019-02-05T20:26:19.585Z,35.80
2019-02-05T20:28:49.168Z,36.88
2019-02-05T20:31:18.863Z,34.08
2019-02-05T20:33:49.827Z,37.35
2019-02-05T20:36:19.823Z,35.63
2019-02-05T20:38:49.424Z,35.40
2019-02-05T20:41:19.289Z,33.75
2019-02-05T20:43:48.981Z,34.85
2019-02-05T20:46:19.085Z,37.90
2019-02-05T20:48:48.775Z,40.52
2019-02-05T20:51:18.484Z,42.43
2019-02-05T20:53:48.760Z,38.25
2019-02-05T20:56:18.413Z,38.20
2019-02-05T20:58:47.986Z,33.65
2019-02-05T21:01:17.620Z,34.40
2019-02-05T21:03:47.340Z,34.13
2019-02-05T21:06:16.920Z,34.18
2019-02-05T21:08:46.605Z,34.65
2019-02-05T21:11:16.171Z,28.07
2019-02-05T21:13:46.114Z,25.27
2019-02-05T21:16:15.967Z,29.42
2019-02-05T21:18:45.612Z,24.50
2019-02-05T21:21:15.178Z,25.80
2019-02-05T21:23:45.222Z,23.38
2019-02-05T21:26:14.930Z,27.70
2019-02-05T21:28:45.072Z,21.48
2019-02-05T21:31:14.697Z,22.50
2019-02-05T21:33:44.263Z,24.12
2019-02-05T21:36:13.763Z,20.70
2019-02-05T21:38:45.409Z,20.02
2019-02-05T21:41:14.570Z,23.30
2019-02-05T21:43:44.484Z,21.87
2019-02-05T21:46:14.112Z,23.60
2019-02-05T21:48:43.675Z,18.55
2019-02-05T21:51:13.246Z,16.12
2019-02-05T21:53:43.082Z,18.20
2019-02-05T21:56:12.588Z,18.27
2019-02-05T21:58:42.222Z,16.73
2019-02-05T22:01:14.365Z,13.43
2019-02-05T22:03:43.148Z,13.95
2019-02-05T22:06:12.871Z,12.55
2019-02-05T22:08:42.935Z,12.37
2019-02-05T22:11:12.616Z,15.53
2019-02-05T22:13:42.257Z,16.48
2019-02-05T22:16:12.007Z,18.77
2019-02-05T22:18:41.588Z,18.75
2019-02-05T22:21:11.800Z,18.73
2019-02-05T22:23:41.488Z,22.87
2019-02-05T22:26:11.214Z,23.32
2019-02-05T22:28:40.903Z,26.82
2019-02-05T22:31:10.572Z,29.77
2019-02-05T22:33:40.285Z,23.98
2019-02-05T22:36:10.326Z,22.82
2019-02-05T22:38:40.281Z,25.55
2019-02-05T22:41:09.850Z,28.23
2019-02-05T22:43:39.422Z,25.43
2019-02-05T22:46:09.483Z,24.52
2019-02-05T22:48:39.458Z,26.37
2019-02-05T22:51:09.211Z,24.35
2019-02-05T22:53:38.868Z,24.63
2019-02-05T22:56:08.502Z,27.45
2019-02-05T22:58:38.120Z,27.73
2019-02-05T23:01:13.734Z,28.98
2019-02-05T23:03:49.112Z,28.62
2019-02-05T23:06:31.039Z,31.60
2019-02-05T23:09:16.383Z,31.17
2019-02-05T23:11:53.170Z,32.45
2019-02-05T23:14:22.831Z,35.65
2019-02-05T23:16:52.475Z,34.15
2019-02-05T23:19:22.620Z,32.55
2019-02-05T23:21:52.530Z,33.23
2019-02-05T23:24:22.103Z,32.88
2019-02-05T23:26:52.079Z,32.05
2019-02-05T23:29:21.803Z,29.27
2019-02-05T23:31:51.387Z,26.65
2019-02-05T23:34:21.919Z,26.35
2019-02-05T23:36:51.494Z,25.00
2019-02-05T23:39:21.153Z,24.52
2019-02-05T23:41:50.943Z,21.07
2019-02-05T23:44:20.650Z,19.62
2019-02-05T23:46:50.220Z,19.95
2019-02-05T23:49:19.900Z,19.52
2019-02-05T23:51:49.547Z,20.12
2019-02-05T23:54:19.259Z,21.30
2019-02-05T23:56:48.875Z,23.05
2019-02-05T23:59:18.518Z,21.97
